createdAt,value
2022-11-07T00:00:47.485Z,97482.00
2022-11-07T00:04:45.481Z,97466.00
2022-11-07T00:08:46.771Z,97470.00
2022-11-07T00:12:47.842Z,97465.00
2022-11-07T00:16:49.278Z,97471.00
2022-11-07T00:20:50.360Z,97461.00
2022-11-07T00:24:52.048Z,97465.00
2022-11-07T00:28:53.117Z,97475.00
2022-11-07T00:32:58.964Z,97482.00
2022-11-07T00:36:57.186Z,97491.00
2022-11-07T00:41:04.302Z,97473.00
2022-11-07T00:45:07.673Z,97419.00
2022-11-07T00:49:09.483Z,97504.00
2022-11-07T00:53:10.898Z,97509.00
2022-11-07T00:57:12.016Z,97493.00
2022-11-07T01:01:17.081Z,97502.00
2022-11-07T01:05:18.405Z,97495.00
2022-11-07T01:09:21.482Z,97519.00
2022-11-07T01:13:23.680Z,97500.00
2022-11-07T01:17:24.930Z,97498.00
2022-11-07T01:21:26.231Z,97518.00
2022-11-07T01:25:27.324Z,97518.00
2022-11-07T01:29:30.238Z,97512.00
2022-11-07T01:33:31.769Z,97519.00
2022-11-07T01:37:32.950Z,97336.00
2022-11-07T01:41:36.112Z,97517.00
2022-11-07T01:45:37.229Z,97527.00
2022-11-07T01:49:41.908Z,97523.00
2022-11-07T01:53:43.475Z,97511.00
2022-11-07T01:58:08.627Z,97495.00
2022-11-07T02:02:10.149Z,97511.00
2022-11-07T02:06:22.484Z,97513.00
2022-11-07T02:10:24.568Z,97511.00
2022-11-07T02:14:25.746Z,97500.00
2022-11-07T02:18:28.492Z,97504.00
2022-11-07T02:22:34.068Z,97514.00
2022-11-07T02:26:37.805Z,97503.00
2022-11-07T02:30:39.189Z,97521.00
2022-11-07T02:34:40.159Z,97500.00
2022-11-07T02:38:42.021Z,97510.00
2022-11-07T02:42:43.679Z,97500.00
2022-11-07T02:46:45.918Z,97495.00
2022-11-07T02:50:46.933Z,97489.00
2022-11-07T02:54:48.218Z,97494.00
2022-11-07T02:58:51.872Z,97502.00
2022-11-07T03:02:59.296Z,97495.00
2022-11-07T03:07:00.742Z,97502.00
2022-11-07T03:11:02.369Z,97498.00
2022-11-07T03:15:06.653Z,97516.00
2022-11-07T03:19:07.787Z,97524.00
2022-11-07T03:23:09.374Z,97511.00
2022-11-07T03:27:10.452Z,97514.00
2022-11-07T03:31:11.611Z,97516.00
2022-11-07T03:35:13.159Z,97529.00
2022-11-07T03:39:14.189Z,97535.00
2022-11-07T03:43:15.806Z,97531.00
2022-11-07T03:47:17.210Z,97517.00
2022-11-07T03:51:18.393Z,97526.00
2022-11-07T03:55:19.397Z,97527.00
2022-11-07T03:59:20.592Z,97538.00
2022-11-07T04:03:21.816Z,97539.00
2022-11-07T04:07:23.058Z,97535.00
2022-11-07T04:11:42.741Z,97537.00
2022-11-07T04:16:03.462Z,97524.00
2022-11-07T04:20:06.690Z,97532.00
2022-11-07T04:24:07.994Z,97533.00
2022-11-07T04:28:08.892Z,97534.00
2022-11-07T04:32:10.154Z,97544.00
2022-11-07T04:36:11.193Z,97540.00
2022-11-07T04:40:12.848Z,97547.00
2022-11-07T04:44:13.915Z,97541.00
2022-11-07T04:48:15.194Z,97536.00
2022-11-07T04:52:16.494Z,97536.00
2022-11-07T04:56:17.763Z,97542.00
2022-11-07T05:00:20.179Z,97543.00
2022-11-07T05:04:21.457Z,97546.00
2022-11-07T05:08:22.622Z,97550.00
2022-11-07T05:12:23.960Z,97547.00
2022-11-07T05:16:25.538Z,97545.00
2022-11-07T05:20:37.286Z,97553.00
2022-11-07T05:24:38.925Z,97553.00
2022-11-07T05:28:40.445Z,97552.00
2022-11-07T05:32:41.654Z,97552.00
2022-11-07T05:36:42.723Z,97545.00
2022-11-07T05:40:44.066Z,97552.00
2022-11-07T05:44:45.080Z,97550.00
2022-11-07T05:48:46.194Z,97553.00
2022-11-07T05:52:47.273Z,97554.00
2022-11-07T05:56:48.515Z,97559.00
2022-11-07T06:00:49.744Z,97555.00
2022-11-07T06:04:50.724Z,97556.00
2022-11-07T06:08:51.813Z,97559.00
2022-11-07T06:13:00.865Z,97560.00
2022-11-07T06:17:02.199Z,97560.00
2022-11-07T06:21:03.839Z,97556.00
2022-11-07T06:25:05.315Z,97575.00
2022-11-07T06:29:06.625Z,97586.00
2022-11-07T06:33:11.697Z,97578.00
2022-11-07T06:37:12.845Z,97589.00
2022-11-07T06:41:14.603Z,97589.00
2022-11-07T06:45:15.771Z,97602.00
2022-11-07T06:49:16.773Z,97601.00
2022-11-07T06:53:18.085Z,97595.00
2022-11-07T06:57:19.440Z,97609.00
2022-11-07T07:01:20.482Z,97616.00
2022-11-07T07:05:21.753Z,97629.00
2022-11-07T07:09:22.942Z,97619.00
2022-11-07T07:13:24.451Z,97626.00
2022-11-07T07:17:25.756Z,97628.00
2022-11-07T07:21:26.794Z,97635.00
2022-11-07T07:25:27.916Z,97642.00
2022-11-07T07:29:29.234Z,97639.00
2022-11-07T07:33:30.986Z,97636.00
2022-11-07T07:37:32.409Z,97644.00
2022-11-07T07:41:38.994Z,97646.00
2022-11-07T07:45:36.668Z,97653.00
2022-11-07T07:49:38.007Z,97640.00
2022-11-07T07:53:39.270Z,97635.00
2022-11-07T07:57:43.493Z,97643.00
2022-11-07T08:01:44.789Z,97635.00
2022-11-07T08:05:53.160Z,97639.00
2022-11-07T08:09:54.336Z,97641.00
2022-11-07T08:14:00.830Z,97652.00
2022-11-07T08:18:01.790Z,97651.00
2022-11-07T08:22:02.975Z,97648.00
2022-11-07T08:26:05.097Z,97658.00
2022-11-07T08:30:07.841Z,97658.00
2022-11-07T08:34:08.956Z,97660.00
2022-11-07T08:38:10.267Z,97656.00
2022-11-07T08:46:25.215Z,97671.00
2022-11-07T08:50:26.842Z,97674.00
2022-11-07T08:54:31.720Z,97668.00
2022-11-07T08:58:33.950Z,97679.00
2022-11-07T09:06:38.228Z,97661.00
2022-11-07T09:10:39.619Z,97673.00
2022-11-07T09:14:40.664Z,97639.00
2022-11-07T09:18:41.829Z,97662.00
2022-11-07T09:22:42.918Z,97674.00
2022-11-07T09:26:44.213Z,97594.00
2022-11-07T09:30:45.561Z,97674.00
2022-11-07T09:34:50.560Z,97677.00
2022-11-07T09:38:50.022Z,97677.00
2022-11-07T09:43:13.625Z,97675.00
2022-11-07T09:47:27.107Z,97686.00
2022-11-07T09:51:38.362Z,97681.00
2022-11-07T09:55:43.930Z,97679.00
2022-11-07T09:59:57.810Z,97690.00
2022-11-07T10:08:18.886Z,97689.00
2022-11-07T10:12:27.229Z,97689.00
2022-11-07T10:16:46.409Z,97707.00
2022-11-07T10:21:38.000Z,97699.00
2022-11-07T10:25:37.205Z,97700.00
2022-11-07T10:29:48.291Z,97696.00
2022-11-07T10:33:53.284Z,97708.00
2022-11-07T10:37:57.465Z,97716.00
2022-11-07T10:42:14.898Z,97716.00
2022-11-07T10:46:28.714Z,97724.00
2022-11-07T10:50:31.073Z,97715.00
2022-11-07T10:54:32.864Z,97712.00
2022-11-07T10:58:37.085Z,97715.00
2022-11-07T11:02:49.275Z,97719.00
2022-11-07T11:07:06.002Z,97722.00
2022-11-07T11:11:30.057Z,97697.00
2022-11-07T11:15:35.579Z,97683.00
2022-11-07T11:19:38.166Z,97696.00
2022-11-07T11:23:43.005Z,97702.00
2022-11-07T11:27:47.305Z,97702.00
2022-11-07T11:31:54.468Z,97693.00
2022-11-07T11:36:05.706Z,97694.00
2022-11-07T11:40:11.086Z,97693.00
2022-11-07T11:44:21.930Z,97692.00
2022-11-07T11:48:32.906Z,97682.00
2022-11-07T11:52:34.890Z,97687.00
2022-11-07T11:56:42.835Z,97694.00
2022-11-07T12:00:50.861Z,97677.00
2022-11-07T12:05:12.726Z,97673.00
2022-11-07T12:09:24.342Z,97676.00
2022-11-07T12:13:32.421Z,97673.00
2022-11-07T12:18:03.179Z,97671.00
2022-11-07T12:22:08.292Z,97667.00
2022-11-07T12:26:28.646Z,97665.00
2022-11-07T12:30:54.727Z,97666.00
2022-11-07T12:35:14.694Z,97677.00
2022-11-07T12:39:45.901Z,97674.00
2022-11-07T12:43:57.094Z,97665.00
2022-11-07T12:48:10.208Z,97671.00
2022-11-07T12:52:31.732Z,97678.00
2022-11-07T12:56:36.097Z,97672.00
2022-11-07T13:00:37.382Z,97670.00
2022-11-07T13:04:51.151Z,97664.00
2022-11-07T13:08:58.851Z,97664.00
2022-11-07T13:13:06.766Z,97651.00
2022-11-07T13:17:19.377Z,97659.00
2022-11-07T13:21:21.486Z,97654.00
2022-11-07T13:25:31.445Z,97654.00
2022-11-07T13:29:39.061Z,97651.00
2022-11-07T13:33:40.175Z,97653.00
2022-11-07T13:37:45.145Z,97659.00
2022-11-07T13:41:48.272Z,97650.00
2022-11-07T13:45:59.195Z,97652.00
2022-11-07T13:50:04.239Z,97649.00
2022-11-07T13:54:27.222Z,97661.00
2022-11-07T13:58:31.074Z,97665.00
2022-11-07T14:02:34.390Z,97667.00
2022-11-07T14:06:36.459Z,97658.00
2022-11-07T14:10:46.592Z,97684.00
2022-11-07T14:14:49.964Z,97673.00
2022-11-07T14:18:58.105Z,97676.00
2022-11-07T14:23:00.568Z,97676.00
2022-11-07T14:27:05.480Z,97641.00
2022-11-07T14:31:10.119Z,97683.00
2022-11-07T14:35:13.117Z,97692.00
2022-11-07T14:39:16.599Z,97699.00
2022-11-07T14:43:20.240Z,97695.00
2022-11-07T14:47:27.561Z,97697.00
2022-11-07T14:51:29.016Z,97693.00
2022-11-07T14:55:43.063Z,97692.00
2022-11-07T14:59:44.476Z,97704.00
2022-11-07T15:03:55.631Z,97698.00
2022-11-07T15:07:59.078Z,97694.00
2022-11-07T15:12:00.634Z,97692.00
2022-11-07T15:16:05.767Z,97698.00
2022-11-07T15:20:09.430Z,97696.00
2022-11-07T15:24:38.471Z,97690.00
2022-11-07T15:28:45.832Z,97693.00
2022-11-07T15:32:46.852Z,97694.00
2022-11-07T15:36:47.994Z,97695.00
2022-11-07T15:40:50.972Z,97699.00
2022-11-07T15:44:52.146Z,97701.00
2022-11-07T15:48:53.833Z,97704.00
2022-11-07T15:52:54.887Z,97711.00
2022-11-07T15:56:59.650Z,97700.00
2022-11-07T16:01:01.124Z,97691.00
2022-11-07T16:05:02.373Z,97674.00
2022-11-07T16:09:06.372Z,97689.00
2022-11-07T16:13:08.760Z,97688.00
2022-11-07T16:17:16.426Z,97693.00
2022-11-07T16:21:19.224Z,97690.00
2022-11-07T16:25:30.808Z,97699.00
2022-11-07T16:29:32.772Z,97689.00
2022-11-07T16:33:34.198Z,97702.00
2022-11-07T16:37:35.580Z,97709.00
2022-11-07T16:41:36.879Z,97699.00
2022-11-07T16:45:47.217Z,97704.00
2022-11-07T16:49:51.047Z,97705.00
2022-11-07T16:53:51.579Z,97703.00
2022-11-07T16:57:53.607Z,97710.00
2022-11-07T17:01:55.079Z,97711.00
2022-11-07T17:05:58.625Z,97704.00
2022-11-07T17:09:59.675Z,97703.00
2022-11-07T17:14:00.913Z,97705.00
2022-11-07T17:18:07.257Z,97709.00
2022-11-07T17:22:05.967Z,97707.00
2022-11-07T17:26:09.102Z,97712.00
2022-11-07T17:30:14.368Z,97719.00
2022-11-07T17:34:15.753Z,97726.00
2022-11-07T17:38:17.670Z,97727.00
2022-11-07T17:42:19.321Z,97731.00
2022-11-07T17:46:26.413Z,97739.00
2022-11-07T17:50:27.817Z,97735.00
2022-11-07T17:54:29.825Z,97720.00
2022-11-07T17:58:31.034Z,97721.00
2022-11-07T18:02:32.164Z,97735.00
2022-11-07T18:06:35.877Z,97740.00
2022-11-07T18:10:37.058Z,97732.00
2022-11-07T18:14:38.469Z,97729.00
2022-11-07T18:18:39.751Z,97737.00
2022-11-07T18:22:40.961Z,97740.00
2022-11-07T18:26:42.196Z,97733.00
2022-11-07T18:30:43.629Z,97735.00
2022-11-07T18:34:44.949Z,97731.00
2022-11-07T18:38:49.700Z,97722.00
2022-11-07T18:42:51.402Z,97740.00
2022-11-07T18:46:52.403Z,97721.00
2022-11-07T18:50:55.641Z,97718.00
2022-11-07T18:54:57.194Z,97741.00
2022-11-07T18:58:58.867Z,97745.00
2022-11-07T19:03:00.521Z,97737.00
2022-11-07T19:07:01.738Z,97733.00
2022-11-07T19:11:05.176Z,97734.00
2022-11-07T19:15:07.773Z,97735.00
2022-11-07T19:19:08.723Z,97712.00
2022-11-07T19:23:11.163Z,97724.00
2022-11-07T19:27:12.830Z,97721.00
2022-11-07T19:31:14.786Z,97725.00
2022-11-07T19:35:17.078Z,97711.00
2022-11-07T19:39:18.214Z,97720.00
2022-11-07T19:43:19.968Z,97737.00
2022-11-07T19:47:21.480Z,97732.00
2022-11-07T19:51:23.365Z,97725.00
2022-11-07T19:55:24.742Z,97739.00
2022-11-07T19:59:46.149Z,97722.00
2022-11-07T20:03:49.854Z,97730.00
2022-11-07T20:07:55.406Z,97733.00
2022-11-07T20:11:58.059Z,97724.00
2022-11-07T20:16:09.113Z,97727.00
2022-11-07T20:20:13.640Z,97716.00
2022-11-07T20:24:14.484Z,97725.00
2022-11-07T20:28:15.683Z,97725.00
2022-11-07T20:32:17.029Z,97720.00
2022-11-07T20:36:18.413Z,97725.00
2022-11-07T20:40:22.020Z,97727.00
2022-11-07T20:44:23.297Z,97723.00
2022-11-07T20:48:24.258Z,97730.00
2022-11-07T20:52:25.780Z,97725.00
2022-11-07T20:56:28.907Z,97726.00
2022-11-07T21:00:30.282Z,97723.00
2022-11-07T21:04:44.420Z,97731.00
2022-11-07T21:08:37.327Z,97727.00
2022-11-07T21:12:37.652Z,97731.00
2022-11-07T21:16:38.571Z,97732.00
2022-11-07T21:20:39.862Z,97742.00
2022-11-07T21:24:41.069Z,97725.00
2022-11-07T21:28:42.218Z,97731.00
2022-11-07T21:32:55.602Z,97725.00
2022-11-07T21:36:56.954Z,97732.00
2022-11-07T21:40:58.263Z,97736.00
2022-11-07T21:44:59.311Z,97728.00
2022-11-07T21:49:00.901Z,97729.00
2022-11-07T21:53:01.920Z,97722.00
2022-11-07T21:57:02.965Z,97722.00
2022-11-07T22:01:04.881Z,97722.00
2022-11-07T22:05:07.138Z,97709.00
2022-11-07T22:09:09.693Z,97719.00
2022-11-07T22:13:10.897Z,97714.00
2022-11-07T22:17:11.747Z,97718.00
2022-11-07T22:21:15.839Z,97704.00
2022-11-07T22:25:17.022Z,97697.00
2022-11-07T22:29:18.251Z,97696.00
2022-11-07T22:33:19.464Z,97683.00
2022-11-07T22:37:20.678Z,97693.00
2022-11-07T22:41:23.532Z,97683.00
2022-11-07T22:45:24.453Z,97687.00
2022-11-07T22:49:25.671Z,97673.00
2022-11-07T22:53:26.632Z,97678.00
2022-11-07T22:57:27.832Z,97675.00
2022-11-07T23:01:31.798Z,97677.00
2022-11-07T23:05:34.196Z,97677.00
2022-11-07T23:09:35.209Z,97665.00
2022-11-07T23:13:36.174Z,97674.00
2022-11-07T23:17:38.584Z,97672.00
2022-11-07T23:21:40.326Z,97677.00
2022-11-07T23:25:41.423Z,97674.00
2022-11-07T23:29:43.420Z,97678.00
2022-11-07T23:33:44.627Z,97677.00
2022-11-07T23:37:45.683Z,97675.00
2022-11-07T23:41:46.946Z,97679.00
2022-11-07T23:46:06.628Z,97679.00
2022-11-07T23:50:27.241Z,97670.00
2022-11-07T23:54:46.937Z,97670.00
2022-11-07T23:59:07.052Z,97664.00
